Time,TemperatureF,DewpointF,PressureIn,WindDirection,WindDirectionDegrees,WindSpeedMPH,WindSpeedGustMPH,Humidity,HourlyPrecipIn,Conditions,Clouds,dailyrainin,SoftwareType,DateUTC
2013-02-02 00:01:00,29.7,27.6,29.88,NE,45,3.0,4.0,92,0.00,,,0.00,Weather View 32 v70,2013-02-02 09:01:00,
2013-02-02 00:06:00,29.7,27.6,29.89,NE,45,4.0,4.0,92,0.00,,,0.00,Weather View 32 v70,2013-02-02 09:06:00,
2013-02-02 00:11:00,29.7,27.6,29.89,NE,45,4.0,4.0,92,0.00,,,0.00,Weather View 32 v70,2013-02-02 09:11:00,
2013-02-02 00:16:00,29.7,27.4,29.89,NE,45,4.0,4.0,91,0.00,,,0.00,Weather View 32 v70,2013-02-02 09:16:00,
2013-02-02 00:21:00,29.7,27.4,29.89,NE,45,3.0,4.0,91,0.00,,,0.00,Weather View 32 v70,2013-02-02 09:21:00,
2013-02-02 00:26:00,29.7,27.6,29.88,NE,45,2.0,4.0,92,0.00,,,0.00,Weather View 32 v70,2013-02-02 09:26:00,
2013-02-02 00:31:00,29.7,27.6,29.88,NE,45,2.0,4.0,92,0.00,,,0.00,Weather View 32 v70,2013-02-02 09:31:00,
2013-02-02 00:36:00,29.7,27.4,29.88,NE,45,2.0,4.0,91,0.00,,,0.00,Weather View 32 v70,2013-02-02 09:36:00,
2013-02-02 00:41:00,29.7,27.6,29.88,NE,45,2.0,4.0,92,0.00,,,0.00,Weather View 32 v70,2013-02-02 09:41:00,
2013-02-02 00:46:00,29.7,27.6,29.87,NE,45,2.0,4.0,92,0.00,,,0.00,Weather View 32 v70,2013-02-02 09:46:00,
2013-02-02 00:51:00,29.7,27.6,29.87,NE,45,2.0,4.0,92,0.00,,,0.00,Weather View 32 v70,2013-02-02 09:51:00,
2013-02-02 00:56:00,29.7,27.6,29.87,NE,45,2.0,4.0,92,0.00,,,0.00,Weather View 32 v70,2013-02-02 09:56:00,
2013-02-02 01:01:00,29.7,27.6,29.87,NE,45,3.0,4.0,92,0.00,,,0.00,Weather View 32 v70,2013-02-02 10:01:00,
2013-02-02 01:05:00,29.7,27.6,29.87,NE,45,3.0,4.0,92,0.00,,,0.00,Weather View 32 v70,2013-02-02 10:05:00,
2013-02-02 01:11:00,29.7,27.6,29.87,NE,45,3.0,4.0,92,0.00,,,0.00,Weather View 32 v70,2013-02-02 10:11:00,
2013-02-02 01:16:00,30.0,28.0,29.87,NE,45,3.0,4.0,92,0.00,,,0.00,Weather View 32 v70,2013-02-02 10:16:00,
2013-02-02 01:20:00,29.8,27.8,29.87,NE,45,3.0,3.0,92,0.00,,,0.00,Weather View 32 v70,2013-02-02 10:20:00,
2013-02-02 01:26:00,30.0,28.0,29.87,NE,45,3.0,3.0,92,0.00,,,0.00,Weather View 32 v70,2013-02-02 10:26:00,
2013-02-02 01:30:00,30.0,28.0,29.87,NE,45,3.0,3.0,92,0.00,,,0.00,Weather View 32 v70,2013-02-02 10:30:00,
2013-02-02 01:35:00,29.8,27.8,29.87,NE,45,3.0,3.0,92,0.00,,,0.00,Weather View 32 v70,2013-02-02 10:35:00,
2013-02-02 01:40:00,30.0,28.0,29.87,NE,45,3.0,3.0,92,0.00,,,0.00,Weather View 32 v70,2013-02-02 10:40:00,
2013-02-02 01:45:00,30.0,28.0,29.86,NE,45,3.0,4.0,92,0.00,,,0.00,Weather View 32 v70,2013-02-02 10:45:00,
2013-02-02 01:50:00,30.4,28.3,29.86,NE,45,3.0,4.0,92,0.00,,,0.00,Weather View 32 v70,2013-02-02 10:50:00,
2013-02-02 01:55:00,30.4,28.3,29.86,NE,45,3.0,4.0,92,0.00,,,0.00,Weather View 32 v70,2013-02-02 10:55:00,
2013-02-02 02:00:00,30.2,28.2,29.86,NE,45,3.0,4.0,92,0.00,,,0.00,Weather View 32 v70,2013-02-02 11:00:00,
2013-02-02 02:05:00,30.4,28.3,29.85,NE,45,3.0,4.0,92,0.00,,,0.00,Weather View 32 v70,2013-02-02 11:05:00,
2013-02-02 02:10:00,30.4,28.3,29.85,NE,45,3.0,4.0,92,0.00,,,0.00,Weather View 32 v70,2013-02-02 11:10:00,
2013-02-02 02:15:00,30.4,28.3,29.85,NE,45,4.0,4.0,92,0.00,,,0.00,Weather View 32 v70,2013-02-02 11:15:00,
2013-02-02 02:21:00,30.7,28.7,29.85,NE,45,4.0,4.0,92,0.00,,,0.00,Weather View 32 v70,2013-02-02 11:21:00,
2013-02-02 02:26:00,30.6,28.5,29.85,NE,45,3.0,4.0,92,0.00,,,0.00,Weather View 32 v70,2013-02-02 11:26:00,
2013-02-02 02:31:00,30.6,28.5,29.85,NE,45,3.0,4.0,92,0.00,,,0.00,Weather View 32 v70,2013-02-02 11:31:00,
2013-02-02 02:36:00,30.7,28.7,29.85,NE,45,3.0,4.0,92,0.00,,,0.00,Weather View 32 v70,2013-02-02 11:36:00,
2013-02-02 02:41:00,30.7,28.7,29.85,NE,45,3.0,4.0,92,0.00,,,0.00,Weather View 32 v70,2013-02-02 11:41:00,
2013-02-02 02:46:00,30.7,28.7,29.85,NE,45,3.0,4.0,92,0.00,,,0.00,Weather View 32 v70,2013-02-02 11:46:00,
2013-02-02 02:51:00,31.1,29.0,29.85,NE,45,3.0,4.0,92,0.00,,,0.00,Weather View 32 v70,2013-02-02 11:51:00,
2013-02-02 02:56:00,31.1,29.0,29.85,NE,45,3.0,4.0,92,0.00,,,0.00,Weather View 32 v70,2013-02-02 11:56:00,
2013-02-02 03:01:00,31.1,29.0,29.85,NE,45,3.0,4.0,92,0.00,,,0.00,Weather View 32 v70,2013-02-02 12:01:00,
2013-02-02 03:06:00,31.1,29.0,29.86,NE,45,3.0,4.0,92,0.00,,,0.00,Weather View 32 v70,2013-02-02 12:06:00,
2013-02-02 03:11:00,31.1,29.0,29.86,NE,45,3.0,4.0,92,0.00,,,0.00,Weather View 32 v70,2013-02-02 12:11:00,
2013-02-02 03:16:00,30.9,28.9,29.86,NE,45,2.0,4.0,92,0.00,,,0.00,Weather View 32 v70,2013-02-02 12:16:00,
2013-02-02 03:21:00,31.1,29.0,29.86,NE,45,2.0,4.0,92,0.00,,,0.00,Weather View 32 v70,2013-02-02 12:21:00,
2013-02-02 03:26:00,30.9,29.1,29.85,NE,45,2.0,3.0,93,0.00,,,0.00,Weather View 32 v70,2013-02-02 12:26:00,
2013-02-02 03:31:00,31.1,29.0,29.85,NE,45,2.0,3.0,92,0.00,,,0.00,Weather View 32 v70,2013-02-02 12:31:00,
2013-02-02 03:36:00,31.1,29.0,29.85,NE,45,2.0,3.0,92,0.00,,,0.00,Weather View 32 v70,2013-02-02 12:36:00,
2013-02-02 03:41:00,31.1,29.0,29.85,NE,45,3.0,3.0,92,0.00,,,0.00,Weather View 32 v70,2013-02-02 12:41:00,
2013-02-02 03:46:00,31.1,29.3,29.84,NE,45,3.0,3.0,93,0.00,,,0.00,Weather View 32 v70,2013-02-02 12:46:00,
2013-02-02 03:51:00,31.1,29.3,29.84,NE,45,3.0,3.0,93,0.00,,,0.00,Weather View 32 v70,2013-02-02 12:51:00,
2013-02-02 03:56:00,31.1,29.3,29.84,NE,45,3.0,3.0,93,0.00,,,0.00,Weather View 32 v70,2013-02-02 12:56:00,
2013-02-02 04:01:00,31.1,29.3,29.84,NE,45,3.0,3.0,93,0.00,,,0.00,Weather View 32 v70,2013-02-02 13:01:00,
2013-02-02 04:06:00,31.1,29.3,29.84,NE,45,3.0,3.0,93,0.00,,,0.00,Weather View 32 v70,2013-02-02 13:06:00,
2013-02-02 04:11:00,31.1,29.3,29.84,NE,45,3.0,3.0,93,0.00,,,0.00,Weather View 32 v70,2013-02-02 13:11:00,
2013-02-02 04:16:00,31.1,29.3,29.84,NE,45,3.0,3.0,93,0.00,,,0.00,Weather View 32 v70,2013-02-02 13:16:00,
2013-02-02 04:21:00,31.1,29.3,29.84,NE,45,3.0,3.0,93,0.00,,,0.00,Weather View 32 v70,2013-02-02 13:21:00,
2013-02-02 04:26:00,31.1,29.3,29.84,NE,45,3.0,3.0,93,0.00,,,0.00,Weather View 32 v70,2013-02-02 13:26:00,
2013-02-02 04:31:00,31.1,29.3,29.84,NE,45,4.0,4.0,93,0.00,,,0.00,Weather View 32 v70,2013-02-02 13:31:00,
2013-02-02 04:36:00,31.1,29.3,29.84,NE,45,4.0,4.0,93,0.00,,,0.00,Weather View 32 v70,2013-02-02 13:36:00,
2013-02-02 04:41:00,31.1,29.3,29.84,NE,45,3.0,4.0,93,0.00,,,0.00,Weather View 32 v70,2013-02-02 13:41:00,
2013-02-02 04:46:00,31.1,29.3,29.82,NE,45,4.0,4.0,93,0.00,,,0.00,Weather View 32 v70,2013-02-02 13:46:00,
2013-02-02 04:51:00,31.1,29.3,29.82,NE,45,3.0,4.0,93,0.00,,,0.00,Weather View 32 v70,2013-02-02 13:51:00,
2013-02-02 04:56:00,31.1,29.3,29.82,NE,45,3.0,4.0,93,0.00,,,0.00,Weather View 32 v70,2013-02-02 13:56:00,
2013-02-02 05:01:00,31.5,29.7,29.82,NE,45,3.0,4.0,93,0.00,,,0.00,Weather View 32 v70,2013-02-02 14:01:00,
2013-02-02 05:06:00,31.3,29.5,29.82,NE,45,3.0,4.0,93,0.00,,,0.00,Weather View 32 v70,2013-02-02 14:06:00,
2013-02-02 05:11:00,31.8,30.0,29.82,NE,45,3.0,4.0,93,0.00,,,0.00,Weather View 32 v70,2013-02-02 14:11:00,
2013-02-02 05:16:00,31.8,30.0,29.82,NE,45,3.0,4.0,93,0.00,,,0.00,Weather View 32 v70,2013-02-02 14:16:00,
2013-02-02 05:21:00,31.8,30.0,29.82,NE,45,3.0,4.0,93,0.00,,,0.00,Weather View 32 v70,2013-02-02 14:21:00,
2013-02-02 05:26:00,31.8,30.0,29.82,NE,45,3.0,4.0,93,0.00,,,0.00,Weather View 32 v70,2013-02-02 14:26:00,
2013-02-02 05:31:00,32.0,30.2,29.82,NE,45,2.0,4.0,93,0.00,,,0.00,Weather View 32 v70,2013-02-02 14:31:00,
2013-02-02 05:36:00,32.0,30.2,29.82,NE,45,3.0,4.0,93,0.00,,,0.00,Weather View 32 v70,2013-02-02 14:36:00,
2013-02-02 05:41:00,32.0,30.2,29.82,NE,45,3.0,4.0,93,0.00,,,0.00,Weather View 32 v70,2013-02-02 14:41:00,
2013-02-02 05:46:00,32.0,30.2,29.81,NE,45,2.0,4.0,93,0.00,,,0.00,Weather View 32 v70,2013-02-02 14:46:00,
2013-02-02 05:53:00,32.2,30.4,29.81,NE,45,2.0,3.0,93,0.00,,,0.00,Weather View 32 v70,2013-02-02 14:53:00,
2013-02-02 05:58:00,32.2,30.4,29.81,NE,45,2.0,3.0,93,0.00,,,0.00,Weather View 32 v70,2013-02-02 14:58:00,
2013-02-02 06:03:00,32.0,30.2,29.81,NE,45,2.0,3.0,93,0.00,,,0.00,Weather View 32 v70,2013-02-02 15:03:00,
2013-02-02 06:08:00,32.0,30.2,29.82,NE,45,2.0,3.0,93,0.00,,,0.00,Weather View 32 v70,2013-02-02 15:08:00,
2013-02-02 06:13:00,32.0,30.2,29.82,NE,45,2.0,3.0,93,0.00,,,0.00,Weather View 32 v70,2013-02-02 15:13:00,
2013-02-02 06:18:00,32.2,30.4,29.82,NE,45,2.0,3.0,93,0.00,,,0.00,Weather View 32 v70,2013-02-02 15:18:00,
2013-02-02 06:23:00,32.5,30.7,29.82,NE,45,2.0,3.0,93,0.00,,,0.00,Weather View 32 v70,2013-02-02 15:23:00,
2013-02-02 06:27:00,32.5,30.7,29.81,NE,45,2.0,3.0,93,0.00,,,0.00,Weather View 32 v70,2013-02-02 15:27:00,
2013-02-02 06:33:00,32.5,30.7,29.81,NE,45,2.0,3.0,93,0.00,,,0.00,Weather View 32 v70,2013-02-02 15:33:00,
2013-02-02 06:38:00,32.5,30.7,29.81,NE,45,3.0,3.0,93,0.00,,,0.00,Weather View 32 v70,2013-02-02 15:38:00,
2013-02-02 06:43:00,32.5,30.7,29.81,NE,45,3.0,3.0,93,0.00,,,0.00,Weather View 32 v70,2013-02-02 15:43:00,
2013-02-02 06:48:00,32.5,30.7,29.81,NE,45,3.0,3.0,93,0.00,,,0.00,Weather View 32 v70,2013-02-02 15:48:00,
2013-02-02 06:53:00,32.7,30.9,29.81,NE,45,3.0,3.0,93,0.00,,,0.00,Weather View 32 v70,2013-02-02 15:53:00,
2013-02-02 06:57:00,32.7,30.9,29.81,NE,45,3.0,3.0,93,0.00,,,0.00,Weather View 32 v70,2013-02-02 15:57:00,
2013-02-02 07:02:00,32.5,30.7,29.81,NE,45,3.0,3.0,93,0.00,,,0.00,Weather View 32 v70,2013-02-02 16:02:00,
2013-02-02 07:07:00,32.5,30.7,29.80,NE,45,3.0,3.0,93,0.00,,,0.00,Weather View 32 v70,2013-02-02 16:07:00,
2013-02-02 07:14:00,32.4,30.6,29.80,NE,45,4.0,4.0,93,0.00,,,0.00,Weather View 32 v70,2013-02-02 16:14:00,
2013-02-02 07:20:00,32.5,30.7,29.80,NE,45,4.0,4.0,93,0.00,,,0.00,Weather View 32 v70,2013-02-02 16:20:00,
2013-02-02 07:25:00,32.4,30.6,29.80,NE,45,4.0,4.0,93,0.00,,,0.00,Weather View 32 v70,2013-02-02 16:25:00,
2013-02-02 07:30:00,32.5,30.7,29.80,NE,45,3.0,4.0,93,0.00,,,0.00,Weather View 32 v70,2013-02-02 16:30:00,
2013-02-02 07:35:00,32.5,30.7,29.80,NE,45,3.0,4.0,93,0.00,,,0.00,Weather View 32 v70,2013-02-02 16:35:00,
2013-02-02 07:40:00,32.2,30.6,29.80,NE,45,3.0,4.0,94,0.00,,,0.00,Weather View 32 v70,2013-02-02 16:40:00,
2013-02-02 07:45:00,32.2,30.4,29.80,NE,45,3.0,4.0,93,0.00,,,0.00,Weather View 32 v70,2013-02-02 16:45:00,
2013-02-02 07:50:00,32.0,30.2,29.80,NE,45,3.0,4.0,93,0.00,,,0.00,Weather View 32 v70,2013-02-02 16:50:00,
2013-02-02 07:55:00,32.2,30.4,29.80,NE,45,3.0,4.0,93,0.00,,,0.00,Weather View 32 v70,2013-02-02 16:55:00,
2013-02-02 08:00:00,32.0,30.2,29.80,NE,45,3.0,4.0,93,0.00,,,0.00,Weather View 32 v70,2013-02-02 17:00:00,
2013-02-02 08:05:00,31.8,30.0,29.80,NE,45,3.0,4.0,93,0.00,,,0.00,Weather View 32 v70,2013-02-02 17:05:00,
2013-02-02 08:10:00,31.6,29.8,29.80,NE,45,3.0,4.0,93,0.00,,,0.00,Weather View 32 v70,2013-02-02 17:10:00,
2013-02-02 08:15:00,31.8,30.0,29.80,NE,45,3.0,4.0,93,0.00,,,0.00,Weather View 32 v70,2013-02-02 17:15:00,
2013-02-02 08:20:00,31.5,29.7,29.80,NE,45,3.0,4.0,93,0.00,,,0.00,Weather View 32 v70,2013-02-02 17:20:00,
2013-02-02 08:25:00,31.3,29.5,29.80,NE,45,2.0,4.0,93,0.00,,,0.00,Weather View 32 v70,2013-02-02 17:25:00,
2013-02-02 08:30:00,31.5,29.7,29.80,NE,45,2.0,4.0,93,0.00,,,0.00,Weather View 32 v70,2013-02-02 17:30:00,
2013-02-02 08:35:00,31.1,29.3,29.80,NE,45,2.0,3.0,93,0.00,,,0.00,Weather View 32 v70,2013-02-02 17:35:00,
2013-02-02 08:40:00,30.9,29.1,29.80,NE,45,1.0,3.0,93,0.00,,,0.00,Weather View 32 v70,2013-02-02 17:40:00,
2013-02-02 08:45:00,31.1,29.6,29.80,NE,45,1.0,3.0,94,0.00,,,0.00,Weather View 32 v70,2013-02-02 17:45:00,
2013-02-02 08:50:00,30.9,29.4,29.80,NE,45,2.0,3.0,94,0.00,,,0.00,Weather View 32 v70,2013-02-02 17:50:00,
2013-02-02 08:55:00,31.1,29.6,29.80,NE,45,3.0,3.0,94,0.00,,,0.00,Weather View 32 v70,2013-02-02 17:55:00,
2013-02-02 09:00:00,30.7,29.2,29.80,NE,45,2.0,3.0,94,0.00,,,0.00,Weather View 32 v70,2013-02-02 18:00:00,
2013-02-02 09:05:00,30.7,29.2,29.80,NE,45,2.0,3.0,94,0.00,,,0.00,Weather View 32 v70,2013-02-02 18:05:00,
2013-02-02 09:10:00,30.4,28.9,29.80,NE,45,2.0,3.0,94,0.00,,,0.00,Weather View 32 v70,2013-02-02 18:10:00,
2013-02-02 09:15:00,30.4,28.9,29.80,NE,45,2.0,3.0,94,0.00,,,0.00,Weather View 32 v70,2013-02-02 18:15:00,
2013-02-02 09:20:00,30.4,28.9,29.80,NE,45,1.0,3.0,94,0.00,,,0.00,Weather View 32 v70,2013-02-02 18:20:00,
2013-02-02 09:25:00,30.0,28.2,29.83,NE,45,1.0,3.0,93,0.00,,,0.00,Weather View 32 v70,2013-02-02 18:25:00,
2013-02-02 09:30:00,30.0,28.5,29.83,NE,45,1.0,3.0,94,0.00,,,0.00,Weather View 32 v70,2013-02-02 18:30:00,
2013-02-02 09:35:00,29.7,27.9,29.83,NE,45,1.0,3.0,93,0.00,,,0.00,Weather View 32 v70,2013-02-02 18:35:00,
2013-02-02 09:40:00,29.7,27.9,29.83,NE,45,1.0,3.0,93,0.00,,,0.00,Weather View 32 v70,2013-02-02 18:40:00,
2013-02-02 09:45:00,29.7,27.9,29.84,NE,45,1.0,3.0,93,0.00,,,0.00,Weather View 32 v70,2013-02-02 18:45:00,
2013-02-02 09:50:00,29.7,27.9,29.84,NE,45,2.0,3.0,93,0.00,,,0.00,Weather View 32 v70,2013-02-02 18:50:00,
2013-02-02 09:55:00,29.7,27.9,29.84,NE,45,2.0,3.0,93,0.00,,,0.00,Weather View 32 v70,2013-02-02 18:55:00,
2013-02-02 10:00:00,29.3,27.5,29.84,NE,45,2.0,2.0,93,0.00,,,0.00,Weather View 32 v70,2013-02-02 19:00:00,
2013-02-02 10:05:00,29.3,27.5,29.84,NE,45,2.0,2.0,93,0.00,,,0.00,Weather View 32 v70,2013-02-02 19:05:00,
2013-02-02 10:10:00,28.9,27.2,29.84,NE,45,2.0,2.0,93,0.00,,,0.00,Weather View 32 v70,2013-02-02 19:10:00,
2013-02-02 10:15:00,28.9,27.2,29.84,NE,45,1.0,2.0,93,0.00,,,0.00,Weather View 32 v70,2013-02-02 19:15:00,
2013-02-02 10:20:00,28.8,27.0,29.84,NE,45,1.0,2.0,93,0.00,,,0.00,Weather View 32 v70,2013-02-02 19:20:00,
2013-02-02 10:25:00,28.9,27.2,29.85,NE,45,1.0,2.0,93,0.00,,,0.00,Weather View 32 v70,2013-02-02 19:25:00,
2013-02-02 10:30:00,28.9,27.2,29.85,NE,45,1.0,2.0,93,0.00,,,0.00,Weather View 32 v70,2013-02-02 19:30:00,
2013-02-02 10:35:00,28.9,27.2,29.85,NE,45,2.0,2.0,93,0.00,,,0.00,Weather View 32 v70,2013-02-02 19:35:00,
2013-02-02 10:40:00,28.6,26.8,29.85,NE,45,2.0,2.0,93,0.00,,,0.00,Weather View 32 v70,2013-02-02 19:40:00,
2013-02-02 10:45:00,28.6,26.8,29.85,NE,45,2.0,2.0,93,0.00,,,0.00,Weather View 32 v70,2013-02-02 19:45:00,
2013-02-02 10:50:00,28.9,27.2,29.85,NE,45,2.0,2.0,93,0.00,,,0.00,Weather View 32 v70,2013-02-02 19:50:00,
2013-02-02 10:55:00,28.8,27.0,29.85,NE,45,2.0,2.0,93,0.00,,,0.00,Weather View 32 v70,2013-02-02 19:55:00,
2013-02-02 11:00:00,28.9,27.2,29.85,NE,45,1.0,2.0,93,0.00,,,0.00,Weather View 32 v70,2013-02-02 20:00:00,
2013-02-02 11:05:00,29.3,27.5,29.85,NE,45,1.0,2.0,93,0.00,,,0.00,Weather View 32 v70,2013-02-02 20:05:00,
2013-02-02 11:10:00,29.5,27.7,29.85,NE,45,2.0,2.0,93,0.00,,,0.00,Weather View 32 v70,2013-02-02 20:10:00,
2013-02-02 11:15:00,29.8,28.1,29.85,NE,45,1.0,2.0,93,0.00,,,0.00,Weather View 32 v70,2013-02-02 20:15:00,
2013-02-02 11:20:00,30.4,28.6,29.85,NE,45,2.0,2.0,93,0.00,,,0.00,Weather View 32 v70,2013-02-02 20:20:00,
2013-02-02 11:25:00,30.4,28.6,29.84,NE,45,2.0,2.0,93,0.00,,,0.00,Weather View 32 v70,2013-02-02 20:25:00,
2013-02-02 11:30:00,30.7,29.0,29.84,NE,45,3.0,3.0,93,0.00,,,0.00,Weather View 32 v70,2013-02-02 20:30:00,
2013-02-02 11:35:00,31.1,29.3,29.84,NE,45,2.0,3.0,93,0.00,,,0.00,Weather View 32 v70,2013-02-02 20:35:00,
2013-02-02 11:40:00,31.8,30.0,29.84,NE,45,2.0,3.0,93,0.00,,,0.00,Weather View 32 v70,2013-02-02 20:40:00,
2013-02-02 11:45:00,31.8,30.0,29.85,NE,45,2.0,3.0,93,0.00,,,0.00,Weather View 32 v70,2013-02-02 20:45:00,
2013-02-02 11:50:00,34.9,33.1,29.85,NE,45,3.0,3.0,93,0.00,,,0.00,Weather View 32 v70,2013-02-02 20:50:00,
2013-02-02 11:55:00,39.2,37.1,29.85,NE,45,3.0,3.0,92,0.00,,,0.00,Weather View 32 v70,2013-02-02 20:55:00,
2013-02-02 12:00:00,42.8,39.8,29.85,NE,45,3.0,3.0,89,0.00,,,0.00,Weather View 32 v70,2013-02-02 21:00:00,
2013-02-02 12:05:00,43.7,40.1,29.84,NE,45,3.0,3.0,87,0.00,,,0.00,Weather View 32 v70,2013-02-02 21:05:00,
2013-02-02 12:10:00,43.7,40.1,29.84,NE,45,3.0,3.0,87,0.00,,,0.00,Weather View 32 v70,2013-02-02 21:10:00,
2013-02-02 12:15:00,46.2,38.4,29.84,NE,45,2.0,3.0,74,0.00,,,0.00,Weather View 32 v70,2013-02-02 21:15:00,
2013-02-02 12:20:00,49.1,38.6,29.84,NE,45,2.0,3.0,67,0.00,,,0.00,Weather View 32 v70,2013-02-02 21:20:00,
2013-02-02 12:25:00,50.5,38.8,29.81,NE,45,2.0,3.0,64,0.00,,,0.00,Weather View 32 v70,2013-02-02 21:25:00,
2013-02-02 12:30:00,50.7,38.2,29.81,NE,45,2.0,3.0,62,0.00,,,0.00,Weather View 32 v70,2013-02-02 21:30:00,
2013-02-02 12:35:00,49.8,36.9,29.81,NE,45,2.0,3.0,61,0.00,,,0.00,Weather View 32 v70,2013-02-02 21:35:00,
2013-02-02 12:40:00,50.7,37.7,29.81,NE,45,2.0,3.0,61,0.00,,,0.00,Weather View 32 v70,2013-02-02 21:40:00,
2013-02-02 12:45:00,51.4,37.1,29.80,NE,45,3.0,3.0,58,0.00,,,0.00,Weather View 32 v70,2013-02-02 21:45:00,
2013-02-02 12:50:00,51.6,37.3,29.80,NE,45,3.0,3.0,58,0.00,,,0.00,Weather View 32 v70,2013-02-02 21:50:00,
2013-02-02 12:55:00,52.3,37.5,29.80,NE,45,2.0,3.0,57,0.00,,,0.00,Weather View 32 v70,2013-02-02 21:55:00,
2013-02-02 13:00:00,52.7,37.0,29.80,NE,45,2.0,3.0,55,0.00,,,0.00,Weather View 32 v70,2013-02-02 22:00:00,
2013-02-02 13:05:00,53.1,37.7,29.79,NE,45,2.0,3.0,56,0.00,,,0.00,Weather View 32 v70,2013-02-02 22:05:00,
2013-02-02 13:10:00,50.5,35.8,29.79,NE,45,3.0,3.0,57,0.00,,,0.00,Weather View 32 v70,2013-02-02 22:10:00,
2013-02-02 13:15:00,44.2,32.8,29.79,NE,45,3.0,3.0,64,0.00,,,0.00,Weather View 32 v70,2013-02-02 22:15:00,
2013-02-02 13:20:00,40.5,32.1,29.79,NE,45,3.0,3.0,72,0.00,,,0.00,Weather View 32 v70,2013-02-02 22:20:00,
2013-02-02 13:25:00,39.2,31.9,29.80,NE,45,3.0,3.0,75,0.00,,,0.00,Weather View 32 v70,2013-02-02 22:25:00,
2013-02-02 13:30:00,38.3,32.0,29.80,NE,45,2.0,3.0,78,0.00,,,0.00,Weather View 32 v70,2013-02-02 22:30:00,
2013-02-02 13:35:00,37.8,31.8,29.80,NE,45,2.0,3.0,79,0.00,,,0.00,Weather View 32 v70,2013-02-02 22:35:00,
2013-02-02 13:40:00,37.6,32.3,29.80,NE,45,3.0,3.0,81,0.00,,,0.00,Weather View 32 v70,2013-02-02 22:40:00,
2013-02-02 13:45:00,37.6,32.6,29.80,NE,45,3.0,3.0,82,0.00,,,0.00,Weather View 32 v70,2013-02-02 22:45:00,
2013-02-02 13:50:00,37.8,32.8,29.80,NE,45,3.0,3.0,82,0.00,,,0.00,Weather View 32 v70,2013-02-02 22:50:00,
2013-02-02 13:55:00,37.4,32.7,29.80,NE,45,2.0,3.0,83,0.00,,,0.00,Weather View 32 v70,2013-02-02 22:55:00,
2013-02-02 14:00:00,36.9,32.5,29.80,NE,45,3.0,3.0,84,0.00,,,0.00,Weather View 32 v70,2013-02-02 23:00:00,
2013-02-02 14:05:00,36.5,32.4,29.78,NE,45,3.0,3.0,85,0.00,,,0.00,Weather View 32 v70,2013-02-02 23:05:00,
2013-02-02 14:10:00,35.6,31.5,29.78,NE,45,3.0,3.0,85,0.00,,,0.00,Weather View 32 v70,2013-02-02 23:10:00,
2013-02-02 14:15:00,35.4,31.6,29.78,NE,45,3.0,3.0,86,0.00,,,0.00,Weather View 32 v70,2013-02-02 23:15:00,
2013-02-02 14:20:00,35.1,31.6,29.78,NE,45,3.0,3.0,87,0.00,,,0.00,Weather View 32 v70,2013-02-02 23:20:00,
2013-02-02 14:25:00,35.1,31.6,29.77,NE,45,3.0,3.0,87,0.00,,,0.00,Weather View 32 v70,2013-02-02 23:25:00,
2013-02-02 14:30:00,34.9,31.7,29.77,NE,45,3.0,3.0,88,0.00,,,0.00,Weather View 32 v70,2013-02-02 23:30:00,
2013-02-02 14:35:00,34.9,31.7,29.77,NE,45,3.0,4.0,88,0.00,,,0.00,Weather View 32 v70,2013-02-02 23:35:00,
2013-02-02 14:40:00,34.9,31.7,29.77,NNE,22,3.0,4.0,88,0.00,,,0.00,Weather View 32 v70,2013-02-02 23:40:00,
2013-02-02 14:45:00,34.9,31.7,29.76,NNE,22,4.0,4.0,88,0.00,,,0.00,Weather View 32 v70,2013-02-02 23:45:00,
2013-02-02 14:50:00,34.7,31.8,29.76,NNE,22,4.0,4.0,89,0.00,,,0.00,Weather View 32 v70,2013-02-02 23:50:00,
2013-02-02 14:55:00,34.7,31.8,29.76,NNE,22,4.0,4.0,89,0.00,,,0.00,Weather View 32 v70,2013-02-02 23:55:00,
2013-02-02 15:00:00,34.7,31.8,29.76,NNW,338,4.0,4.0,89,0.00,,,0.00,Weather View 32 v70,2013-02-03 00:00:00,
2013-02-02 15:05:00,34.3,31.4,29.77,North,0,3.0,4.0,89,0.00,,,0.00,Weather View 32 v70,2013-02-03 00:05:00,
2013-02-02 15:10:00,34.3,31.7,29.77,NNE,22,3.0,4.0,90,0.00,,,0.00,Weather View 32 v70,2013-02-03 00:10:00,
2013-02-02 15:15:00,34.7,32.1,29.77,NNW,338,3.0,4.0,90,0.00,,,0.00,Weather View 32 v70,2013-02-03 00:15:00,
2013-02-02 15:20:00,34.9,32.2,29.77,NNE,22,3.0,4.0,90,0.00,,,0.00,Weather View 32 v70,2013-02-03 00:20:00,
2013-02-02 15:25:00,34.7,32.1,29.77,NNE,22,3.0,4.0,90,0.00,,,0.00,Weather View 32 v70,2013-02-03 00:25:00,
2013-02-02 15:30:00,34.3,31.7,29.77,NE,45,3.0,4.0,90,0.00,,,0.00,Weather View 32 v70,2013-02-03 00:30:00,
2013-02-02 15:35:00,34.2,31.5,29.77,NE,45,3.0,4.0,90,0.00,,,0.00,Weather View 32 v70,2013-02-03 00:35:00,
2013-02-02 15:40:00,34.2,31.5,29.77,NE,45,3.0,4.0,90,0.00,,,0.00,Weather View 32 v70,2013-02-03 00:40:00,
2013-02-02 15:45:00,34.2,31.5,29.76,ENE,68,3.0,4.0,90,0.00,,,0.00,Weather View 32 v70,2013-02-03 00:45:00,
2013-02-02 15:50:00,34.0,31.4,29.76,NNW,338,3.0,4.0,90,0.00,,,0.00,Weather View 32 v70,2013-02-03 00:50:00,
2013-02-02 15:55:00,34.0,31.4,29.76,NE,45,3.0,4.0,90,0.00,,,0.00,Weather View 32 v70,2013-02-03 00:55:00,
2013-02-02 16:00:00,34.0,31.4,29.76,NE,45,3.0,4.0,90,0.00,,,0.00,Weather View 32 v70,2013-02-03 01:00:00,
2013-02-02 16:05:00,33.6,31.3,29.75,NE,45,3.0,3.0,91,0.00,,,0.00,Weather View 32 v70,2013-02-03 01:05:00,
2013-02-02 16:10:00,33.3,30.9,29.75,NE,45,3.0,3.0,91,0.00,,,0.00,Weather View 32 v70,2013-02-03 01:10:00,
2013-02-02 16:15:00,33.3,30.9,29.75,NNE,22,3.0,3.0,91,0.00,,,0.00,Weather View 32 v70,2013-02-03 01:15:00,
2013-02-02 16:20:00,32.9,30.6,29.75,NE,45,3.0,3.0,91,0.00,,,0.00,Weather View 32 v70,2013-02-03 01:20:00,
2013-02-02 16:25:00,32.9,30.6,29.74,NE,45,3.0,3.0,91,0.00,,,0.00,Weather View 32 v70,2013-02-03 01:25:00,
2013-02-02 16:30:00,32.9,30.6,29.74,NNE,22,3.0,3.0,91,0.00,,,0.00,Weather View 32 v70,2013-02-03 01:30:00,
2013-02-02 16:35:00,32.7,30.4,29.74,NNE,22,2.0,3.0,91,0.00,,,0.00,Weather View 32 v70,2013-02-03 01:35:00,
2013-02-02 16:40:00,32.7,30.4,29.74,NNE,22,2.0,3.0,91,0.00,,,0.00,Weather View 32 v70,2013-02-03 01:40:00,
2013-02-02 16:45:00,32.5,30.2,29.74,NE,45,3.0,3.0,91,0.00,,,0.00,Weather View 32 v70,2013-02-03 01:45:00,
2013-02-02 16:50:00,32.7,30.4,29.74,North,0,3.0,3.0,91,0.00,,,0.00,Weather View 32 v70,2013-02-03 01:50:00,
2013-02-02 16:55:00,32.5,30.2,29.74,NNE,22,2.0,3.0,91,0.00,,,0.00,Weather View 32 v70,2013-02-03 01:55:00,
2013-02-02 17:00:00,32.5,30.2,29.74,NNE,22,3.0,3.0,91,0.00,,,0.00,Weather View 32 v70,2013-02-03 02:00:00,
2013-02-02 17:05:00,32.9,30.6,29.74,NNW,338,3.0,3.0,91,0.00,,,0.00,Weather View 32 v70,2013-02-03 02:05:00,
2013-02-02 17:10:00,32.9,30.8,29.74,NNW,338,3.0,3.0,92,0.00,,,0.00,Weather View 32 v70,2013-02-03 02:10:00,
2013-02-02 17:15:00,32.7,30.7,29.74,North,0,3.0,3.0,92,0.00,,,0.00,Weather View 32 v70,2013-02-03 02:15:00,
2013-02-02 17:20:00,32.9,30.8,29.74,NE,45,3.0,3.0,92,0.00,,,0.00,Weather View 32 v70,2013-02-03 02:20:00,
2013-02-02 17:25:00,32.5,30.5,29.73,NE,45,3.0,3.0,92,0.00,,,0.00,Weather View 32 v70,2013-02-03 02:25:00,
2013-02-02 17:30:00,32.2,30.1,29.73,North,0,3.0,3.0,92,0.00,,,0.00,Weather View 32 v70,2013-02-03 02:30:00,
2013-02-02 17:35:00,32.0,29.9,29.73,NNW,338,3.0,3.0,92,0.00,,,0.00,Weather View 32 v70,2013-02-03 02:35:00,
2013-02-02 17:40:00,31.8,29.8,29.73,NNW,338,3.0,3.0,92,0.00,,,0.00,Weather View 32 v70,2013-02-03 02:40:00,
2013-02-02 17:45:00,31.8,29.8,29.70,NNW,338,3.0,3.0,92,0.00,,,0.00,Weather View 32 v70,2013-02-03 02:45:00,
2013-02-02 17:50:00,31.8,29.8,29.70,ENE,68,3.0,3.0,92,0.00,,,0.00,Weather View 32 v70,2013-02-03 02:50:00,
2013-02-02 17:55:00,31.5,29.4,29.70,ENE,68,3.0,3.0,92,0.00,,,0.00,Weather View 32 v70,2013-02-03 02:55:00,
2013-02-02 18:00:00,31.5,29.4,29.70,ENE,68,3.0,3.0,92,0.00,,,0.00,Weather View 32 v70,2013-02-03 03:00:00,
2013-02-02 18:05:00,31.3,29.2,29.69,ENE,68,3.0,3.0,92,0.00,,,0.00,Weather View 32 v70,2013-02-03 03:05:00,
2013-02-02 18:10:00,31.3,29.2,29.69,East,90,3.0,3.0,92,0.00,,,0.00,Weather View 32 v70,2013-02-03 03:10:00,
2013-02-02 18:15:00,31.3,29.2,29.69,East,90,3.0,3.0,92,0.00,,,0.00,Weather View 32 v70,2013-02-03 03:15:00,
2013-02-02 18:20:00,31.1,29.0,29.69,East,90,3.0,3.0,92,0.00,,,0.00,Weather View 32 v70,2013-02-03 03:20:00,
2013-02-02 18:25:00,31.1,29.0,29.69,East,90,3.0,3.0,92,0.00,,,0.00,Weather View 32 v70,2013-02-03 03:25:00,
2013-02-02 18:30:00,30.9,28.9,29.69,East,90,3.0,3.0,92,0.00,,,0.00,Weather View 32 v70,2013-02-03 03:30:00,
2013-02-02 18:35:00,31.1,29.0,29.69,East,90,3.0,3.0,92,0.00,,,0.00,Weather View 32 v70,2013-02-03 03:35:00,
2013-02-02 18:40:00,31.1,29.0,29.69,East,90,3.0,3.0,92,0.00,,,0.00,Weather View 32 v70,2013-02-03 03:40:00,
2013-02-02 18:45:00,31.1,29.0,29.67,East,90,3.0,3.0,92,0.00,,,0.00,Weather View 32 v70,2013-02-03 03:45:00,
2013-02-02 18:50:00,30.9,28.9,29.67,East,90,3.0,3.0,92,0.00,,,0.00,Weather View 32 v70,2013-02-03 03:50:00,
2013-02-02 18:55:00,30.9,28.9,29.67,East,90,3.0,3.0,92,0.00,,,0.00,Weather View 32 v70,2013-02-03 03:55:00,
2013-02-02 19:00:00,31.1,29.0,29.67,East,90,3.0,3.0,92,0.00,,,0.00,Weather View 32 v70,2013-02-03 04:00:00,
2013-02-02 19:05:00,31.1,29.0,29.69,East,90,3.0,3.0,92,0.00,,,0.00,Weather View 32 v70,2013-02-03 04:05:00,
2013-02-02 19:10:00,30.7,28.7,29.69,East,90,3.0,3.0,92,0.00,,,0.00,Weather View 32 v70,2013-02-03 04:10:00,
2013-02-02 19:15:00,30.7,28.7,29.69,East,90,3.0,3.0,92,0.00,,,0.00,Weather View 32 v70,2013-02-03 04:15:00,
2013-02-02 19:20:00,30.7,28.7,29.69,East,90,3.0,3.0,92,0.00,,,0.00,Weather View 32 v70,2013-02-03 04:20:00,
2013-02-02 19:25:00,30.6,28.5,29.70,East,90,3.0,3.0,92,0.00,,,0.00,Weather View 32 v70,2013-02-03 04:25:00,
2013-02-02 19:30:00,30.7,28.7,29.70,East,90,3.0,3.0,92,0.00,,,0.00,Weather View 32 v70,2013-02-03 04:30:00,
2013-02-02 19:35:00,30.4,28.3,29.70,East,90,3.0,3.0,92,0.00,,,0.00,Weather View 32 v70,2013-02-03 04:35:00,
2013-02-02 19:40:00,30.4,28.3,29.70,East,90,3.0,3.0,92,0.00,,,0.00,Weather View 32 v70,2013-02-03 04:40:00,
2013-02-02 19:45:00,30.4,28.6,29.75,East,90,3.0,3.0,93,0.00,,,0.00,Weather View 32 v70,2013-02-03 04:45:00,
2013-02-02 19:50:00,30.4,28.6,29.75,East,90,3.0,3.0,93,0.00,,,0.00,Weather View 32 v70,2013-02-03 04:50:00,
2013-02-02 19:55:00,30.0,28.2,29.75,East,90,3.0,3.0,93,0.00,,,0.00,Weather View 32 v70,2013-02-03 04:55:00,
2013-02-02 20:00:00,30.0,28.2,29.75,East,90,3.0,3.0,93,0.00,,,0.00,Weather View 32 v70,2013-02-03 05:00:00,
2013-02-02 20:05:00,30.0,28.2,29.80,East,90,3.0,3.0,93,0.00,,,0.00,Weather View 32 v70,2013-02-03 05:05:00,
2013-02-02 20:10:00,30.0,28.2,29.80,East,90,4.0,4.0,93,0.00,,,0.00,Weather View 32 v70,2013-02-03 05:10:00,
2013-02-02 20:15:00,30.0,28.2,29.80,East,90,4.0,4.0,93,0.00,,,0.00,Weather View 32 v70,2013-02-03 05:15:00,
2013-02-02 20:20:00,30.0,28.2,29.80,East,90,4.0,4.0,93,0.00,,,0.00,Weather View 32 v70,2013-02-03 05:20:00,
2013-02-02 20:25:00,30.0,28.2,29.81,East,90,3.0,4.0,93,0.00,,,0.00,Weather View 32 v70,2013-02-03 05:25:00,
2013-02-02 20:30:00,30.0,28.2,29.81,East,90,3.0,4.0,93,0.00,,,0.00,Weather View 32 v70,2013-02-03 05:30:00,
2013-02-02 20:35:00,29.8,28.1,29.81,East,90,3.0,4.0,93,0.00,,,0.00,Weather View 32 v70,2013-02-03 05:35:00,
2013-02-02 20:40:00,30.0,28.2,29.81,East,90,4.0,4.0,93,0.00,,,0.00,Weather View 32 v70,2013-02-03 05:40:00,
2013-02-02 20:45:00,30.0,28.2,29.78,East,90,3.0,4.0,93,0.00,,,0.00,Weather View 32 v70,2013-02-03 05:45:00,
2013-02-02 20:50:00,30.0,28.2,29.78,East,90,3.0,4.0,93,0.00,,,0.00,Weather View 32 v70,2013-02-03 05:50:00,
2013-02-02 20:55:00,30.0,28.2,29.78,East,90,3.0,4.0,93,0.00,,,0.00,Weather View 32 v70,2013-02-03 05:55:00,
2013-02-02 21:00:00,30.2,28.4,29.78,East,90,4.0,4.0,93,0.00,,,0.00,Weather View 32 v70,2013-02-03 06:00:00,
2013-02-02 21:05:00,30.2,28.4,29.75,East,90,4.0,4.0,93,0.00,,,0.00,Weather View 32 v70,2013-02-03 06:05:00,
2013-02-02 21:10:00,30.4,28.6,29.75,East,90,3.0,4.0,93,0.00,,,0.00,Weather View 32 v70,2013-02-03 06:10:00,
2013-02-02 21:15:00,30.4,28.6,29.75,East,90,3.0,4.0,93,0.00,,,0.00,Weather View 32 v70,2013-02-03 06:15:00,
2013-02-02 21:20:00,30.4,28.6,29.75,East,90,3.0,4.0,93,0.00,,,0.00,Weather View 32 v70,2013-02-03 06:20:00,
2013-02-02 21:25:00,30.4,28.6,29.73,East,90,3.0,4.0,93,0.00,,,0.00,Weather View 32 v70,2013-02-03 06:25:00,
2013-02-02 21:30:00,30.4,28.6,29.73,East,90,3.0,4.0,93,0.00,,,0.00,Weather View 32 v70,2013-02-03 06:30:00,
2013-02-02 21:35:00,30.4,28.6,29.73,East,90,3.0,4.0,93,0.00,,,0.00,Weather View 32 v70,2013-02-03 06:35:00,
2013-02-02 21:40:00,30.7,29.0,29.73,East,90,4.0,4.0,93,0.00,,,0.00,Weather View 32 v70,2013-02-03 06:40:00,
2013-02-02 21:45:00,30.6,28.8,29.70,East,90,4.0,4.0,93,0.00,,,0.00,Weather View 32 v70,2013-02-03 06:45:00,
2013-02-02 21:50:00,30.6,28.8,29.70,East,90,4.0,4.0,93,0.00,,,0.00,Weather View 32 v70,2013-02-03 06:50:00,
2013-02-02 21:55:00,30.7,29.0,29.70,East,90,4.0,4.0,93,0.00,,,0.00,Weather View 32 v70,2013-02-03 06:55:00,
2013-02-02 22:00:00,30.7,29.0,29.70,East,90,4.0,4.0,93,0.00,,,0.00,Weather View 32 v70,2013-02-03 07:00:00,
2013-02-02 22:05:00,30.7,29.0,29.68,East,90,4.0,5.0,93,0.00,,,0.00,Weather View 32 v70,2013-02-03 07:05:00,
2013-02-02 22:10:00,30.7,29.0,29.68,East,90,4.0,5.0,93,0.00,,,0.00,Weather View 32 v70,2013-02-03 07:10:00,
2013-02-02 22:15:00,31.1,29.3,29.68,East,90,5.0,5.0,93,0.00,,,0.00,Weather View 32 v70,2013-02-03 07:15:00,
2013-02-02 22:20:00,30.9,29.1,29.68,East,90,5.0,5.0,93,0.00,,,0.00,Weather View 32 v70,2013-02-03 07:20:00,
2013-02-02 22:25:00,31.1,29.3,29.67,East,90,5.0,5.0,93,0.00,,,0.00,Weather View 32 v70,2013-02-03 07:25:00,
2013-02-02 22:30:00,31.1,29.3,29.67,East,90,5.0,5.0,93,0.00,,,0.00,Weather View 32 v70,2013-02-03 07:30:00,
2013-02-02 22:35:00,31.1,29.3,29.67,East,90,5.0,5.0,93,0.00,,,0.00,Weather View 32 v70,2013-02-03 07:35:00,
2013-02-02 22:40:00,31.1,29.3,29.67,East,90,5.0,5.0,93,0.00,,,0.00,Weather View 32 v70,2013-02-03 07:40:00,
2013-02-02 22:45:00,31.1,29.3,29.66,East,90,4.0,5.0,93,0.00,,,0.00,Weather View 32 v70,2013-02-03 07:45:00,
2013-02-02 22:50:00,30.9,29.1,29.66,East,90,4.0,5.0,93,0.00,,,0.00,Weather View 32 v70,2013-02-03 07:50:00,
2013-02-02 22:55:00,31.1,29.3,29.66,East,90,4.0,5.0,93,0.00,,,0.00,Weather View 32 v70,2013-02-03 07:55:00,
2013-02-02 23:00:00,31.1,29.3,29.66,East,90,5.0,5.0,93,0.00,,,0.00,Weather View 32 v70,2013-02-03 08:00:00,
2013-02-02 23:05:00,31.1,29.3,29.65,East,90,5.0,5.0,93,0.00,,,0.00,Weather View 32 v70,2013-02-03 08:05:00,
2013-02-02 23:10:00,31.1,29.3,29.65,East,90,5.0,5.0,93,0.00,,,0.00,Weather View 32 v70,2013-02-03 08:10:00,
2013-02-02 23:15:00,31.1,29.3,29.65,East,90,5.0,5.0,93,0.00,,,0.00,Weather View 32 v70,2013-02-03 08:15:00,
2013-02-02 23:20:00,31.1,29.3,29.65,East,90,5.0,5.0,93,0.00,,,0.00,Weather View 32 v70,2013-02-03 08:20:00,
2013-02-02 23:25:00,31.1,29.0,29.64,East,90,5.0,5.0,92,0.00,,,0.00,Weather View 32 v70,2013-02-03 08:25:00,
2013-02-02 23:30:00,31.3,29.2,29.64,East,90,5.0,6.0,92,0.00,,,0.00,Weather View 32 v70,2013-02-03 08:30:00,
2013-02-02 23:35:00,31.3,29.2,29.64,East,90,6.0,6.0,92,0.00,,,0.00,Weather View 32 v70,2013-02-03 08:35:00,
2013-02-02 23:40:00,31.3,29.2,29.64,East,90,6.0,6.0,92,0.00,,,0.00,Weather View 32 v70,2013-02-03 08:40:00,
2013-02-02 23:45:00,31.5,29.4,29.63,East,90,6.0,6.0,92,0.00,,,0.00,Weather View 32 v70,2013-02-03 08:45:00,
2013-02-02 23:50:00,31.5,29.4,29.63,East,90,6.0,6.0,92,0.00,,,0.00,Weather View 32 v70,2013-02-03 08:50:00,
2013-02-02 23:55:00,31.3,29.2,29.63,East,90,6.0,6.0,92,0.00,,,0.00,Weather View 32 v70,2013-02-03 08:55:00,